createdAt,value
2022-09-20T00:00:05.665Z,14.89
2022-09-20T00:02:57.171Z,14.63
2022-09-20T00:05:28.779Z,15.99
2022-09-20T00:08:00.353Z,16.97
2022-09-20T00:10:36.101Z,17.47
2022-09-20T00:13:09.187Z,17.40
2022-09-20T00:15:44.449Z,16.12
2022-09-20T00:18:16.173Z,14.90
2022-09-20T00:20:50.011Z,14.53
2022-09-20T00:23:21.748Z,15.79
2022-09-20T00:25:59.558Z,16.80
2022-09-20T00:28:32.678Z,17.39
2022-09-20T00:31:04.902Z,17.35
2022-09-20T00:33:59.899Z,16.11
2022-09-20T00:36:31.554Z,14.82
2022-09-20T00:39:04.909Z,14.56
2022-09-20T00:41:36.386Z,15.87
2022-09-20T00:44:19.892Z,16.82
2022-09-20T00:46:51.621Z,17.39
2022-09-20T00:49:27.876Z,17.40
2022-09-20T00:52:03.101Z,16.08
2022-09-20T00:54:34.809Z,14.84
2022-09-20T00:57:06.744Z,14.45
2022-09-20T00:59:41.488Z,15.69
2022-09-20T01:02:18.487Z,16.72
2022-09-20T01:04:51.350Z,17.28
2022-09-20T01:07:23.910Z,17.17
2022-09-20T01:09:55.542Z,15.86
2022-09-20T01:12:28.369Z,15.12
2022-09-20T01:15:01.358Z,16.04
2022-09-20T01:17:36.365Z,17.01
2022-09-20T01:20:19.195Z,17.15
2022-09-20T01:23:28.066Z,15.86
2022-09-20T01:26:34.213Z,15.30
2022-09-20T01:29:18.975Z,16.70
2022-09-20T01:31:54.691Z,17.49
2022-09-20T01:34:32.463Z,17.47
2022-09-20T01:37:12.695Z,16.18
2022-09-20T01:39:53.214Z,15.02
2022-09-20T01:42:30.505Z,14.81
2022-09-20T01:45:08.257Z,16.35
2022-09-20T01:47:46.587Z,17.49
2022-09-20T01:50:30.040Z,17.58
2022-09-20T01:53:31.304Z,16.18
2022-09-20T01:56:42.467Z,14.89
2022-09-20T01:59:32.439Z,15.02
2022-09-20T02:02:10.993Z,16.77
2022-09-20T02:05:19.223Z,17.59
2022-09-20T02:08:08.836Z,17.36
2022-09-20T02:10:59.814Z,15.75
2022-09-20T02:13:33.215Z,15.14
2022-09-20T02:16:30.131Z,16.45
2022-09-20T02:19:22.298Z,17.59
2022-09-20T02:22:07.176Z,17.22
2022-09-20T02:24:45.357Z,15.78
2022-09-20T02:27:24.426Z,14.72
2022-09-20T02:30:08.628Z,14.58
2022-09-20T02:32:55.651Z,16.18
2022-09-20T02:35:41.556Z,17.25
2022-09-20T02:38:37.637Z,17.32
2022-09-20T02:41:26.124Z,15.82
2022-09-20T02:44:02.985Z,14.60
2022-09-20T02:46:42.185Z,14.39
2022-09-20T02:49:23.129Z,15.93
2022-09-20T02:51:59.225Z,17.10
2022-09-20T02:54:44.298Z,17.28
2022-09-20T02:57:22.523Z,15.89
2022-09-20T02:59:59.434Z,14.68
2022-09-20T03:02:39.275Z,14.44
2022-09-20T03:05:18.287Z,16.01
2022-09-20T03:08:08.372Z,17.10
2022-09-20T03:10:49.382Z,17.19
2022-09-20T03:13:32.184Z,15.81
2022-09-20T03:16:18.075Z,14.53
2022-09-20T03:18:58.612Z,14.32
2022-09-20T03:21:45.389Z,15.85
2022-09-20T03:24:25.084Z,16.96
2022-09-20T03:27:03.666Z,17.04
2022-09-20T03:29:50.870Z,15.73
2022-09-20T03:32:37.087Z,14.44
2022-09-20T03:35:26.351Z,14.28
2022-09-20T03:38:10.366Z,15.96
2022-09-20T03:41:03.339Z,17.05
2022-09-20T03:43:51.891Z,17.04
2022-09-20T03:46:27.792Z,15.55
2022-09-20T03:49:38.432Z,14.36
2022-09-20T03:52:24.169Z,14.37
2022-09-20T03:55:09.513Z,15.97
2022-09-20T03:57:58.749Z,16.95
2022-09-20T04:00:45.428Z,17.06
2022-09-20T04:03:45.995Z,15.75
2022-09-20T04:06:35.445Z,14.57
2022-09-20T04:09:32.203Z,14.49
2022-09-20T04:12:08.993Z,16.08
2022-09-20T04:14:50.051Z,17.07
2022-09-20T04:17:32.269Z,17.18
2022-09-20T04:20:16.069Z,15.86
2022-09-20T04:22:51.258Z,14.64
2022-09-20T04:25:28.207Z,14.40
2022-09-20T04:28:05.891Z,15.95
2022-09-20T04:30:44.066Z,17.23
2022-09-20T04:33:22.881Z,17.40
2022-09-20T04:36:19.509Z,16.05
2022-09-20T04:39:01.716Z,14.71
2022-09-20T04:42:15.297Z,14.55
2022-09-20T04:45:28.877Z,16.50
2022-09-20T04:48:21.594Z,17.45
2022-09-20T04:51:26.537Z,16.99
2022-09-20T04:54:38.794Z,15.36
2022-09-20T04:57:32.878Z,15.17
2022-09-20T05:00:10.993Z,16.85
2022-09-20T05:03:13.548Z,17.32
2022-09-20T05:06:14.330Z,15.95
2022-09-20T05:09:14.935Z,14.71
2022-09-20T05:11:58.217Z,14.73
2022-09-20T05:14:47.726Z,16.42
2022-09-20T05:17:31.411Z,17.38
2022-09-20T05:20:31.866Z,17.34
2022-09-20T05:23:33.149Z,15.82
2022-09-20T05:26:14.602Z,14.52
2022-09-20T05:28:56.935Z,14.24
2022-09-20T05:31:40.314Z,15.61
2022-09-20T05:34:21.606Z,16.79
2022-09-20T05:36:59.600Z,17.41
2022-09-20T05:39:37.914Z,17.37
2022-09-20T05:42:20.892Z,15.97
2022-09-20T05:45:06.227Z,14.70
2022-09-20T05:47:50.940Z,14.61
2022-09-20T05:50:42.951Z,16.02
2022-09-20T05:53:45.410Z,16.95
2022-09-20T05:56:26.015Z,16.76
2022-09-20T05:59:15.007Z,15.27
2022-09-20T06:01:59.113Z,15.17
2022-09-20T06:04:40.998Z,16.37
2022-09-20T06:07:23.652Z,17.04
2022-09-20T06:10:24.636Z,17.11
2022-09-20T06:13:01.586Z,15.63
2022-09-20T06:15:45.760Z,14.98
2022-09-20T06:18:26.220Z,16.22
2022-09-20T06:21:06.131Z,17.35
2022-09-20T06:23:38.277Z,17.57
2022-09-20T06:26:16.982Z,16.38
2022-09-20T06:28:55.274Z,15.21
2022-09-20T06:31:29.937Z,14.98
2022-09-20T06:34:06.724Z,16.49
2022-09-20T06:36:59.652Z,17.59
2022-09-20T06:39:59.009Z,17.57
2022-09-20T06:42:30.905Z,16.08
2022-09-20T06:45:02.571Z,15.57
2022-09-20T06:47:38.555Z,16.89
2022-09-20T06:50:17.536Z,17.94
2022-09-20T06:52:50.110Z,18.06
2022-09-20T06:55:29.479Z,16.91
2022-09-20T06:58:01.262Z,15.81
2022-09-20T07:00:32.834Z,15.54
2022-09-20T07:03:02.797Z,16.96
2022-09-20T07:05:34.312Z,18.05
2022-09-20T07:08:04.369Z,18.27
2022-09-20T07:10:35.822Z,17.21
2022-09-20T07:13:06.367Z,16.22
2022-09-20T07:15:38.044Z,15.48
2022-09-20T07:18:10.039Z,15.42
2022-09-20T07:20:41.799Z,17.08
2022-09-20T07:23:15.079Z,17.97
2022-09-20T07:25:46.568Z,17.00
2022-09-20T07:28:16.551Z,15.90
2022-09-20T07:30:48.056Z,15.05
2022-09-20T07:33:21.634Z,14.93
2022-09-20T07:35:54.465Z,16.61
2022-09-20T07:38:26.186Z,17.88
2022-09-20T07:40:59.840Z,18.09
2022-09-20T07:43:32.446Z,16.84
2022-09-20T07:46:03.963Z,15.62
2022-09-20T07:48:35.252Z,15.22
2022-09-20T07:51:10.460Z,16.62
2022-09-20T07:53:42.325Z,17.68
2022-09-20T07:56:15.675Z,17.81
2022-09-20T07:58:52.156Z,16.60
2022-09-20T08:01:24.252Z,15.45
2022-09-20T08:03:55.957Z,15.22
2022-09-20T08:06:27.637Z,16.73
2022-09-20T08:08:59.303Z,17.50
2022-09-20T08:11:30.921Z,16.52
2022-09-20T08:14:06.246Z,15.36
2022-09-20T08:16:43.074Z,15.01
2022-09-20T08:19:19.072Z,16.52
2022-09-20T08:21:52.593Z,17.50
2022-09-20T08:24:26.135Z,17.22
2022-09-20T08:26:57.572Z,15.92
2022-09-20T08:29:29.042Z,15.30
2022-09-20T08:32:01.138Z,16.69
2022-09-20T08:34:32.726Z,17.72
2022-09-20T08:37:02.691Z,17.90
2022-09-20T08:42:39.163Z,15.46
2022-09-20T08:45:33.717Z,15.39
2022-09-20T08:48:14.434Z,17.15
2022-09-20T08:50:46.080Z,17.68
2022-09-20T08:53:21.251Z,16.69
2022-09-20T08:55:53.102Z,15.66
2022-09-20T08:58:23.228Z,15.09
2022-09-20T09:00:56.119Z,14.75
2022-09-20T09:03:29.340Z,15.19
2022-09-20T09:06:01.313Z,17.15
2022-09-20T09:08:38.053Z,18.21
2022-09-20T09:11:14.478Z,17.42
2022-09-20T09:13:53.243Z,16.46
2022-09-20T09:16:34.947Z,16.31
2022-09-20T09:19:34.110Z,17.98
2022-09-20T09:22:06.956Z,18.49
2022-09-20T09:24:38.644Z,17.45
2022-09-20T09:27:17.478Z,16.62
2022-09-20T09:29:54.262Z,15.99
2022-09-20T09:32:29.136Z,16.08
2022-09-20T09:35:25.264Z,17.59
2022-09-20T09:37:58.917Z,18.13
2022-09-20T09:40:32.345Z,17.06
2022-09-20T09:43:04.955Z,16.01
2022-09-20T09:45:38.529Z,15.76
2022-09-20T09:48:22.480Z,17.17
2022-09-20T09:51:10.720Z,17.96
2022-09-20T09:53:42.645Z,17.00
2022-09-20T09:56:29.672Z,16.10
2022-09-20T09:59:27.741Z,16.02
2022-09-20T10:02:10.990Z,17.77
2022-09-20T10:04:50.093Z,18.39
2022-09-20T10:07:29.104Z,17.33
2022-09-20T10:10:11.229Z,16.32
2022-09-20T10:12:58.394Z,16.28
2022-09-20T10:15:44.944Z,18.12
2022-09-20T10:18:29.282Z,19.05
2022-09-20T10:21:10.121Z,18.22
2022-09-20T10:24:03.716Z,17.35
2022-09-20T10:26:54.243Z,16.76
2022-09-20T10:29:39.199Z,17.08
2022-09-20T10:32:22.947Z,18.85
2022-09-20T10:35:14.049Z,18.77
2022-09-20T10:38:02.088Z,17.75
2022-09-20T10:40:57.420Z,17.05
2022-09-20T10:43:50.716Z,16.65
2022-09-20T10:46:32.811Z,17.86
2022-09-20T10:49:23.842Z,18.93
2022-09-20T10:52:16.937Z,17.98
2022-09-20T10:55:03.096Z,17.05
2022-09-20T10:57:54.590Z,16.38
2022-09-20T11:00:34.035Z,15.87
2022-09-20T11:03:24.962Z,16.58
2022-09-20T11:06:10.639Z,17.60
2022-09-20T11:08:43.880Z,16.59
2022-09-20T11:11:20.649Z,15.57
2022-09-20T11:14:01.828Z,15.39
2022-09-20T11:16:41.821Z,17.07
2022-09-20T11:19:26.625Z,17.98
2022-09-20T11:22:06.079Z,17.08
2022-09-20T11:24:42.815Z,16.20
2022-09-20T11:27:20.165Z,16.14
2022-09-20T11:29:58.220Z,17.75
2022-09-20T11:32:36.605Z,18.57
2022-09-20T11:35:22.464Z,17.57
2022-09-20T11:37:58.739Z,16.47
2022-09-20T11:40:35.910Z,15.73
2022-09-20T11:43:09.956Z,15.75
2022-09-20T11:45:44.119Z,17.37
2022-09-20T11:48:22.962Z,18.08
2022-09-20T11:51:43.678Z,17.39
2022-09-20T11:54:27.768Z,16.49
2022-09-20T11:57:00.615Z,15.85
2022-09-20T11:59:36.417Z,16.21
2022-09-20T12:02:19.079Z,17.98
2022-09-20T12:04:53.365Z,18.82
2022-09-20T12:07:30.886Z,17.79
2022-09-20T12:10:04.523Z,16.89
2022-09-20T12:12:41.491Z,16.39
2022-09-20T12:15:27.527Z,16.62
2022-09-20T12:18:09.563Z,18.48
2022-09-20T12:21:08.993Z,19.29
2022-09-20T12:24:03.360Z,18.41
2022-09-20T12:27:00.505Z,17.68
2022-09-20T12:30:03.291Z,17.17
2022-09-20T12:32:58.295Z,16.83
2022-09-20T12:36:18.849Z,17.37
2022-09-20T12:39:01.055Z,17.93
2022-09-20T12:41:51.381Z,17.05
2022-09-20T12:44:33.285Z,16.23
2022-09-20T12:47:08.384Z,16.09
2022-09-20T12:50:11.654Z,16.85
2022-09-20T12:52:59.186Z,16.19
2022-09-20T12:55:46.349Z,15.51
2022-09-20T12:58:38.145Z,14.97
2022-09-20T13:01:31.807Z,15.25
2022-09-20T13:04:38.224Z,17.00
2022-09-20T13:07:47.493Z,17.09
2022-09-20T13:10:27.298Z,16.08
2022-09-20T13:13:04.412Z,15.51
2022-09-20T13:15:37.050Z,15.14
2022-09-20T13:18:15.480Z,15.32
2022-09-20T13:20:47.256Z,17.14
2022-09-20T13:23:24.588Z,18.27
2022-09-20T13:25:58.739Z,17.66
2022-09-20T13:28:40.307Z,16.93
2022-09-20T13:31:26.322Z,16.33
2022-09-20T13:34:12.949Z,15.91
2022-09-20T13:36:44.571Z,15.61
2022-09-20T13:39:29.452Z,16.49
2022-09-20T13:42:11.635Z,17.57
2022-09-20T13:44:45.170Z,16.78
2022-09-20T13:47:27.673Z,16.06
2022-09-20T13:50:11.182Z,15.53
2022-09-20T13:52:49.166Z,15.20
2022-09-20T13:55:30.819Z,14.90
2022-09-20T13:58:07.416Z,14.66
2022-09-20T14:00:46.012Z,15.61
2022-09-20T14:03:20.523Z,16.90
2022-09-20T14:05:55.636Z,16.25
2022-09-20T14:08:31.537Z,15.54
2022-09-20T14:11:13.774Z,15.04
2022-09-20T14:13:48.831Z,14.72
2022-09-20T14:16:22.560Z,15.04
2022-09-20T14:18:54.249Z,16.92
2022-09-20T14:21:27.411Z,17.96
2022-09-20T14:24:02.214Z,17.18
2022-09-20T14:26:36.294Z,16.27
2022-09-20T14:29:38.441Z,15.65
2022-09-20T14:32:19.345Z,15.13
2022-09-20T14:35:01.446Z,14.76
2022-09-20T14:37:36.149Z,15.06
2022-09-20T14:40:17.617Z,16.89
2022-09-20T14:42:51.782Z,17.76
2022-09-20T14:45:27.458Z,16.86
2022-09-20T14:48:09.361Z,15.96
2022-09-20T14:50:44.868Z,15.27
2022-09-20T14:53:37.059Z,14.78
2022-09-20T14:56:13.935Z,14.35
2022-09-20T14:59:04.865Z,14.78
2022-09-20T15:01:37.570Z,17.13
2022-09-20T15:04:11.825Z,18.24
2022-09-20T15:06:43.358Z,17.54
2022-09-20T15:09:15.654Z,16.66
2022-09-20T15:11:47.284Z,16.04
2022-09-20T15:14:18.770Z,15.57
2022-09-20T15:16:49.135Z,15.25
2022-09-20T15:19:20.718Z,15.85
2022-09-20T15:21:50.706Z,17.25
2022-09-20T15:24:22.148Z,16.67
2022-09-20T15:26:52.165Z,15.80
2022-09-20T15:29:23.605Z,15.16
2022-09-20T15:31:53.936Z,14.70
2022-09-20T15:34:25.563Z,14.40
2022-09-20T15:36:56.967Z,14.67
2022-09-20T15:39:27.915Z,16.63
2022-09-20T15:41:59.394Z,18.14
2022-09-20T15:44:32.605Z,18.73
2022-09-20T15:47:04.521Z,17.82
2022-09-20T15:49:36.060Z,16.87
2022-09-20T15:52:07.732Z,16.66
2022-09-20T15:54:39.186Z,18.18
2022-09-20T15:57:09.145Z,19.11
2022-09-20T15:59:40.657Z,18.22
2022-09-20T16:02:13.584Z,17.17
2022-09-20T16:04:45.082Z,16.42
2022-09-20T16:07:16.159Z,16.44
2022-09-20T16:09:47.552Z,18.03
2022-09-20T16:12:17.563Z,19.03
2022-09-20T16:14:49.230Z,18.19
2022-09-20T16:17:41.323Z,17.16
2022-09-20T16:20:14.709Z,16.31
2022-09-20T16:22:47.036Z,16.27
2022-09-20T16:25:18.515Z,17.88
2022-09-20T16:27:48.505Z,18.72
2022-09-20T16:30:20.271Z,17.79
2022-09-20T16:32:52.729Z,16.69
2022-09-20T16:35:24.126Z,15.85
2022-09-20T16:38:12.901Z,15.75
2022-09-20T16:40:44.557Z,17.50
2022-09-20T16:43:20.233Z,18.64
2022-09-20T16:45:59.284Z,18.67
2022-09-20T16:48:32.958Z,17.36
2022-09-20T16:51:07.052Z,16.27
2022-09-20T16:53:38.569Z,15.49
2022-09-20T16:56:08.536Z,15.46
2022-09-20T16:58:41.600Z,17.04
2022-09-20T17:01:13.511Z,18.27
2022-09-20T17:03:46.028Z,18.41
2022-09-20T17:06:19.076Z,17.16
2022-09-20T17:08:58.878Z,16.03
2022-09-20T17:11:35.878Z,15.18
2022-09-20T17:14:09.125Z,15.16
2022-09-20T17:16:42.399Z,16.79
2022-09-20T17:19:15.742Z,17.99
2022-09-20T17:21:49.300Z,18.19
2022-09-20T17:24:22.517Z,17.01
2022-09-20T17:26:54.146Z,15.89
2022-09-20T17:29:25.816Z,15.05
2022-09-20T17:32:02.778Z,14.95
2022-09-20T17:34:34.573Z,16.61
2022-09-20T17:37:06.101Z,17.43
2022-09-20T17:39:36.060Z,16.42
2022-09-20T17:42:08.169Z,15.29
2022-09-20T17:44:39.601Z,14.45
2022-09-20T17:47:11.013Z,14.37
2022-09-20T17:49:40.949Z,16.00
2022-09-20T17:52:12.571Z,17.22
2022-09-20T17:54:45.190Z,17.42
2022-09-20T17:57:16.895Z,16.19
2022-09-20T17:59:46.827Z,15.06
2022-09-20T18:02:18.293Z,14.27
2022-09-20T18:04:50.242Z,14.19
2022-09-20T18:07:21.893Z,15.81
2022-09-20T18:10:01.430Z,16.64
2022-09-20T18:12:41.545Z,15.60
2022-09-20T18:15:14.306Z,14.45
2022-09-20T18:17:49.248Z,14.11
2022-09-20T18:20:22.978Z,15.64
2022-09-20T18:22:54.550Z,16.42
2022-09-20T18:25:24.606Z,15.42
2022-09-20T18:27:56.756Z,14.28
2022-09-20T18:30:28.272Z,13.37
2022-09-20T18:32:58.367Z,13.20
2022-09-20T18:35:30.125Z,14.81
2022-09-20T18:38:02.253Z,16.16
2022-09-20T18:40:37.223Z,16.27
2022-09-20T18:43:10.589Z,15.05
2022-09-20T18:45:51.370Z,14.00
2022-09-20T18:48:24.010Z,13.20
2022-09-20T18:51:03.855Z,13.16
2022-09-20T18:53:37.355Z,14.91
2022-09-20T18:56:15.534Z,15.81
2022-09-20T18:58:48.234Z,14.79
2022-09-20T19:01:41.487Z,13.70
2022-09-20T19:04:30.366Z,12.77
2022-09-20T19:07:14.573Z,12.91
2022-09-20T19:09:52.817Z,14.99
2022-09-20T19:12:31.623Z,15.80
2022-09-20T19:15:19.824Z,14.60
2022-09-20T19:18:04.032Z,13.35
2022-09-20T19:20:44.905Z,13.07
2022-09-20T19:23:37.490Z,14.69
2022-09-20T19:26:19.079Z,15.91
2022-09-20T19:28:53.363Z,15.48
2022-09-20T19:31:28.079Z,14.17
2022-09-20T19:34:02.687Z,13.16
2022-09-20T19:36:48.489Z,12.86
2022-09-20T19:39:28.791Z,14.37
2022-09-20T19:42:12.947Z,15.58
2022-09-20T19:44:56.258Z,15.72
2022-09-20T19:47:37.960Z,14.39
2022-09-20T19:50:15.853Z,13.24
2022-09-20T19:52:50.094Z,12.39
2022-09-20T19:55:24.263Z,12.31
2022-09-20T19:57:56.902Z,13.94
2022-09-20T20:00:30.022Z,15.20
2022-09-20T20:03:03.879Z,15.99
2022-09-20T20:05:37.774Z,16.14
2022-09-20T20:08:18.435Z,14.94
2022-09-20T20:11:02.496Z,13.72
2022-09-20T20:13:59.505Z,13.50
2022-09-20T20:16:39.788Z,15.17
2022-09-20T20:19:33.818Z,16.24
2022-09-20T20:22:16.875Z,16.31
2022-09-20T20:24:53.277Z,15.00
2022-09-20T20:27:28.222Z,13.93
2022-09-20T20:30:00.336Z,13.65
2022-09-20T20:32:31.968Z,15.05
2022-09-20T20:35:01.951Z,16.16
2022-09-20T20:37:34.990Z,16.65
2022-09-20T20:40:12.238Z,16.54
2022-09-20T20:42:44.097Z,15.21
2022-09-20T20:45:15.777Z,14.07
2022-09-20T20:47:48.647Z,13.70
2022-09-20T20:50:20.092Z,15.00
2022-09-20T20:52:55.641Z,16.12
2022-09-20T20:55:27.386Z,16.33
2022-09-20T20:57:59.602Z,15.16
2022-09-20T21:00:31.088Z,14.07
2022-09-20T21:03:03.005Z,13.75
2022-09-20T21:05:34.730Z,15.09
2022-09-20T21:08:04.876Z,16.31
2022-09-20T21:10:36.655Z,16.74
2022-09-20T21:13:09.112Z,15.75
2022-09-20T21:15:42.333Z,14.64
2022-09-20T21:18:14.652Z,13.81
2022-09-20T21:20:52.559Z,13.60
2022-09-20T21:23:27.846Z,15.12
2022-09-20T21:26:12.609Z,15.91
2022-09-20T21:28:46.754Z,14.85
2022-09-20T21:31:19.789Z,13.79
2022-09-20T21:33:53.788Z,13.01
2022-09-20T21:36:27.451Z,12.92
2022-09-20T21:38:59.713Z,14.46
2022-09-20T21:41:33.913Z,15.70
2022-09-20T21:44:09.737Z,15.97
2022-09-20T21:46:42.951Z,14.77
2022-09-20T21:49:15.596Z,13.62
2022-09-20T21:51:47.278Z,13.16
2022-09-20T21:54:17.291Z,14.50
2022-09-20T21:56:49.938Z,15.76
2022-09-20T21:59:22.003Z,16.00
2022-09-20T22:01:54.334Z,14.69
2022-09-20T22:04:27.364Z,13.48
2022-09-20T22:06:59.384Z,13.11
2022-09-20T22:09:31.172Z,14.43
2022-09-20T22:12:03.088Z,15.53
2022-09-20T22:14:35.605Z,15.73
2022-09-20T22:17:07.873Z,14.62
2022-09-20T22:19:39.984Z,13.52
2022-09-20T22:22:11.373Z,13.23
2022-09-20T22:24:43.614Z,14.61
2022-09-20T22:27:17.607Z,15.80
2022-09-20T22:29:49.243Z,16.05
2022-09-20T22:32:19.260Z,14.90
2022-09-20T22:34:50.811Z,13.77
2022-09-20T22:37:20.830Z,13.40
2022-09-20T22:39:52.217Z,14.61
2022-09-20T22:42:23.739Z,15.80
2022-09-20T22:45:01.112Z,16.10
2022-09-20T22:47:32.597Z,14.93
2022-09-20T22:50:04.059Z,13.80
2022-09-20T22:52:35.531Z,13.42
2022-09-20T22:55:06.188Z,14.73
2022-09-20T22:57:38.645Z,15.73
2022-09-20T23:00:13.364Z,15.94
2022-09-20T23:02:46.182Z,14.73
2022-09-20T23:05:18.158Z,13.57
2022-09-20T23:07:51.946Z,13.24
2022-09-20T23:10:23.442Z,14.66
2022-09-20T23:12:55.165Z,15.77
2022-09-20T23:15:28.103Z,16.00
2022-09-20T23:18:00.008Z,14.75
2022-09-20T23:20:31.475Z,13.61
2022-09-20T23:23:03.302Z,12.77
2022-09-20T23:25:35.018Z,12.62
2022-09-20T23:28:07.309Z,14.15
2022-09-20T23:30:39.015Z,15.47
2022-09-20T23:33:10.446Z,15.71
2022-09-20T23:35:46.577Z,14.52
2022-09-20T23:38:17.999Z,13.36
2022-09-20T23:40:49.401Z,12.52
2022-09-20T23:43:20.835Z,12.38
2022-09-20T23:45:52.325Z,14.02
2022-09-20T23:48:22.308Z,15.37
2022-09-20T23:50:53.931Z,15.79
2022-09-20T23:53:24.126Z,14.72
2022-09-20T23:55:55.579Z,13.47
2022-09-20T23:58:27.125Z,12.52
